sensor_id;sensor_type;location;lat;lon;timestamp;temperature;humidity
16974;DHT22;8603;46.944;7.412;2024-03-25T00:02:13;5.40;99.90
16974;DHT22;8603;46.944;7.412;2024-03-25T00:04:38;5.50;99.90
16974;DHT22;8603;46.944;7.412;2024-03-25T00:07:04;5.40;99.90
16974;DHT22;8603;46.944;7.412;2024-03-25T00:09:29;5.40;99.90
16974;DHT22;8603;46.944;7.412;2024-03-25T00:11:55;5.50;99.90
16974;DHT22;8603;46.944;7.412;2024-03-25T00:14:21;5.40;99.90
16974;DHT22;8603;46.944;7.412;2024-03-25T00:16:46;5.40;99.90
16974;DHT22;8603;46.944;7.412;2024-03-25T00:19:12;5.40;99.90
16974;DHT22;8603;46.944;7.412;2024-03-25T00:21:38;5.30;99.90
16974;DHT22;8603;46.944;7.412;2024-03-25T00:24:04;5.30;99.90
16974;DHT22;8603;46.944;7.412;2024-03-25T00:26:29;5.20;99.90
16974;DHT22;8603;46.944;7.412;2024-03-25T00:28:55;5.20;99.90
16974;DHT22;8603;46.944;7.412;2024-03-25T00:31:21;5.10;99.90
16974;DHT22;8603;46.944;7.412;2024-03-25T00:33:46;5.10;99.90
16974;DHT22;8603;46.944;7.412;2024-03-25T00:36:12;5.10;99.90
16974;DHT22;8603;46.944;7.412;2024-03-25T00:38:38;5.10;99.90
16974;DHT22;8603;46.944;7.412;2024-03-25T00:41:03;5.10;99.90
16974;DHT22;8603;46.944;7.412;2024-03-25T00:43:29;5.00;99.90
16974;DHT22;8603;46.944;7.412;2024-03-25T00:45:55;5.00;99.90
16974;DHT22;8603;46.944;7.412;2024-03-25T00:48:22;5.00;99.90
16974;DHT22;8603;46.944;7.412;2024-03-25T00:50:48;5.00;99.90
16974;DHT22;8603;46.944;7.412;2024-03-25T00:53:14;5.00;99.90
16974;DHT22;8603;46.944;7.412;2024-03-25T00:55:40;5.00;99.90
16974;DHT22;8603;46.944;7.412;2024-03-25T00:58:05;5.00;99.90
16974;DHT22;8603;46.944;7.412;2024-03-25T01:00:31;4.90;99.90
16974;DHT22;8603;46.944;7.412;2024-03-25T01:02:56;5.00;99.90
16974;DHT22;8603;46.944;7.412;2024-03-25T01:05:22;4.90;99.90
16974;DHT22;8603;46.944;7.412;2024-03-25T01:07:48;4.90;99.90
16974;DHT22;8603;46.944;7.412;2024-03-25T01:10:17;4.90;99.90
16974;DHT22;8603;46.944;7.412;2024-03-25T01:12:43;4.90;99.90
16974;DHT22;8603;46.944;7.412;2024-03-25T01:15:08;4.90;99.90
16974;DHT22;8603;46.944;7.412;2024-03-25T01:17:36;4.90;99.90
16974;DHT22;8603;46.944;7.412;2024-03-25T01:20:02;4.80;99.90
16974;DHT22;8603;46.944;7.412;2024-03-25T01:22:30;4.80;99.90
16974;DHT22;8603;46.944;7.412;2024-03-25T01:24:56;4.80;99.90
16974;DHT22;8603;46.944;7.412;2024-03-25T01:27:21;4.80;99.90
16974;DHT22;8603;46.944;7.412;2024-03-25T01:29:47;4.90;99.90
16974;DHT22;8603;46.944;7.412;2024-03-25T01:32:12;4.80;99.90
16974;DHT22;8603;46.944;7.412;2024-03-25T01:34:38;4.80;99.90
16974;DHT22;8603;46.944;7.412;2024-03-25T01:37:03;4.80;99.90
16974;DHT22;8603;46.944;7.412;2024-03-25T01:39:29;4.80;99.90
16974;DHT22;8603;46.944;7.412;2024-03-25T01:41:55;4.80;99.90
16974;DHT22;8603;46.944;7.412;2024-03-25T01:44:20;4.70;99.90
16974;DHT22;8603;46.944;7.412;2024-03-25T01:46:46;4.70;99.90
16974;DHT22;8603;46.944;7.412;2024-03-25T01:49:12;4.70;99.90
16974;DHT22;8603;46.944;7.412;2024-03-25T01:51:39;4.60;99.90
16974;DHT22;8603;46.944;7.412;2024-03-25T01:54:06;4.60;99.90
16974;DHT22;8603;46.944;7.412;2024-03-25T01:56:33;4.60;99.90
16974;DHT22;8603;46.944;7.412;2024-03-25T01:59:00;4.50;99.90
16974;DHT22;8603;46.944;7.412;2024-03-25T02:01:27;4.50;99.90
16974;DHT22;8603;46.944;7.412;2024-03-25T02:03:54;4.40;99.90
16974;DHT22;8603;46.944;7.412;2024-03-25T02:06:21;4.40;99.90
16974;DHT22;8603;46.944;7.412;2024-03-25T02:08:48;4.30;99.90
16974;DHT22;8603;46.944;7.412;2024-03-25T02:11:14;4.20;99.90
16974;DHT22;8603;46.944;7.412;2024-03-25T02:13:40;4.20;99.90
16974;DHT22;8603;46.944;7.412;2024-03-25T02:16:06;4.10;99.90
16974;DHT22;8603;46.944;7.412;2024-03-25T02:18:32;4.00;99.90
16974;DHT22;8603;46.944;7.412;2024-03-25T02:20:58;4.00;99.90
16974;DHT22;8603;46.944;7.412;2024-03-25T02:23:25;3.90;99.90
16974;DHT22;8603;46.944;7.412;2024-03-25T02:25:51;3.80;99.90
16974;DHT22;8603;46.944;7.412;2024-03-25T02:28:17;3.80;99.90
16974;DHT22;8603;46.944;7.412;2024-03-25T02:30:42;3.70;99.90
16974;DHT22;8603;46.944;7.412;2024-03-25T02:33:08;3.60;99.90
16974;DHT22;8603;46.944;7.412;2024-03-25T02:35:34;3.50;99.90
16974;DHT22;8603;46.944;7.412;2024-03-25T02:38:00;3.40;99.90
16974;DHT22;8603;46.944;7.412;2024-03-25T02:40:26;3.30;99.90
16974;DHT22;8603;46.944;7.412;2024-03-25T02:42:52;3.20;99.90
16974;DHT22;8603;46.944;7.412;2024-03-25T02:45:18;3.20;99.90
16974;DHT22;8603;46.944;7.412;2024-03-25T02:47:43;3.10;99.90
16974;DHT22;8603;46.944;7.412;2024-03-25T02:50:09;3.00;99.90
16974;DHT22;8603;46.944;7.412;2024-03-25T02:52:35;2.90;99.90
16974;DHT22;8603;46.944;7.412;2024-03-25T02:55:00;2.90;99.90
16974;DHT22;8603;46.944;7.412;2024-03-25T02:57:26;2.80;99.90
16974;DHT22;8603;46.944;7.412;2024-03-25T02:59:52;2.70;99.90
16974;DHT22;8603;46.944;7.412;2024-03-25T03:02:17;2.60;99.90
16974;DHT22;8603;46.944;7.412;2024-03-25T03:04:43;2.60;99.90
16974;DHT22;8603;46.944;7.412;2024-03-25T03:07:08;2.60;99.90
16974;DHT22;8603;46.944;7.412;2024-03-25T03:09:37;2.50;99.90
16974;DHT22;8603;46.944;7.412;2024-03-25T03:12:05;2.50;99.90
16974;DHT22;8603;46.944;7.412;2024-03-25T03:14:39;2.40;99.90
16974;DHT22;8603;46.944;7.412;2024-03-25T03:17:07;2.30;99.90
16974;DHT22;8603;46.944;7.412;2024-03-25T03:19:38;2.20;99.90
16974;DHT22;8603;46.944;7.412;2024-03-25T03:22:20;2.20;99.90
16974;DHT22;8603;46.944;7.412;2024-03-25T03:24:53;2.10;99.90
16974;DHT22;8603;46.944;7.412;2024-03-25T03:27:20;2.00;99.90
16974;DHT22;8603;46.944;7.412;2024-03-25T03:29:46;2.10;99.90
16974;DHT22;8603;46.944;7.412;2024-03-25T03:32:14;1.90;99.90
16974;DHT22;8603;46.944;7.412;2024-03-25T03:34:42;1.90;99.90
16974;DHT22;8603;46.944;7.412;2024-03-25T03:37:18;1.70;99.90
16974;DHT22;8603;46.944;7.412;2024-03-25T03:39:48;1.60;99.90
16974;DHT22;8603;46.944;7.412;2024-03-25T03:42:16;1.50;99.90
16974;DHT22;8603;46.944;7.412;2024-03-25T03:44:42;1.50;99.90
16974;DHT22;8603;46.944;7.412;2024-03-25T03:49:55;1.30;99.90
16974;DHT22;8603;46.944;7.412;2024-03-25T03:52:25;1.20;99.90
16974;DHT22;8603;46.944;7.412;2024-03-25T03:54:53;1.10;99.90
16974;DHT22;8603;46.944;7.412;2024-03-25T03:57:19;1.00;99.90
16974;DHT22;8603;46.944;7.412;2024-03-25T03:59:55;1.00;99.90
16974;DHT22;8603;46.944;7.412;2024-03-25T04:02:28;0.90;99.90
16974;DHT22;8603;46.944;7.412;2024-03-25T04:05:01;0.80;99.90
16974;DHT22;8603;46.944;7.412;2024-03-25T04:07:27;0.80;99.90
16974;DHT22;8603;46.944;7.412;2024-03-25T04:09:58;0.70;99.90
16974;DHT22;8603;46.944;7.412;2024-03-25T04:12:34;0.60;99.90
16974;DHT22;8603;46.944;7.412;2024-03-25T04:15:04;0.60;99.90
16974;DHT22;8603;46.944;7.412;2024-03-25T04:17:29;0.50;99.90
16974;DHT22;8603;46.944;7.412;2024-03-25T04:20:01;0.50;99.90
16974;DHT22;8603;46.944;7.412;2024-03-25T04:22:40;0.50;99.90
16974;DHT22;8603;46.944;7.412;2024-03-25T04:25:09;0.60;99.90
16974;DHT22;8603;46.944;7.412;2024-03-25T04:27:47;0.60;99.90
16974;DHT22;8603;46.944;7.412;2024-03-25T04:30:15;0.50;99.90
16974;DHT22;8603;46.944;7.412;2024-03-25T04:32:47;0.60;99.90
16974;DHT22;8603;46.944;7.412;2024-03-25T04:35:24;0.40;99.90
16974;DHT22;8603;46.944;7.412;2024-03-25T04:37:59;0.30;99.90
16974;DHT22;8603;46.944;7.412;2024-03-25T04:40:36;0.30;99.90
16974;DHT22;8603;46.944;7.412;2024-03-25T04:43:36;0.30;99.90
16974;DHT22;8603;46.944;7.412;2024-03-25T04:46:34;0.20;99.90
16974;DHT22;8603;46.944;7.412;2024-03-25T04:49:18;0.20;99.90
16974;DHT22;8603;46.944;7.412;2024-03-25T04:51:54;0.20;99.90
16974;DHT22;8603;46.944;7.412;2024-03-25T04:54:28;0.10;99.90
16974;DHT22;8603;46.944;7.412;2024-03-25T04:57:02;0.10;99.90
16974;DHT22;8603;46.944;7.412;2024-03-25T04:59:34;0.00;99.90
16974;DHT22;8603;46.944;7.412;2024-03-25T05:02:08;-0.10;99.90
16974;DHT22;8603;46.944;7.412;2024-03-25T05:04:44;-0.10;99.90
16974;DHT22;8603;46.944;7.412;2024-03-25T05:07:12;-0.10;99.90
16974;DHT22;8603;46.944;7.412;2024-03-25T05:09:45;0.00;99.90
16974;DHT22;8603;46.944;7.412;2024-03-25T05:12:13;-0.10;99.90
16974;DHT22;8603;46.944;7.412;2024-03-25T05:14:47;-0.10;99.90
16974;DHT22;8603;46.944;7.412;2024-03-25T05:17:50;-0.10;99.90
16974;DHT22;8603;46.944;7.412;2024-03-25T05:23:38;0.00;99.90
16974;DHT22;8603;46.944;7.412;2024-03-25T05:26:30;-0.20;99.90
16974;DHT22;8603;46.944;7.412;2024-03-25T05:29:21;-0.20;99.90
16974;DHT22;8603;46.944;7.412;2024-03-25T05:32:35;-0.10;99.90
16974;DHT22;8603;46.944;7.412;2024-03-25T05:35:03;-0.10;99.90
16974;DHT22;8603;46.944;7.412;2024-03-25T05:37:57;-0.10;99.90
16974;DHT22;8603;46.944;7.412;2024-03-25T06:01:36;2.40;99.90
16974;DHT22;8603;46.944;7.412;2024-03-25T06:04:56;3.00;99.90
16974;DHT22;8603;46.944;7.412;2024-03-25T06:07:23;3.70;99.90
16974;DHT22;8603;46.944;7.412;2024-03-25T06:09:53;4.30;99.90
16974;DHT22;8603;46.944;7.412;2024-03-25T06:12:20;5.20;99.90
16974;DHT22;8603;46.944;7.412;2024-03-25T06:15:04;6.50;99.90
16974;DHT22;8603;46.944;7.412;2024-03-25T06:17:33;7.70;99.90
16974;DHT22;8603;46.944;7.412;2024-03-25T06:20:01;8.40;99.90
16974;DHT22;8603;46.944;7.412;2024-03-25T06:22:30;9.20;99.90
16974;DHT22;8603;46.944;7.412;2024-03-25T06:24:57;9.80;99.90
16974;DHT22;8603;46.944;7.412;2024-03-25T06:27:23;10.10;99.90
16974;DHT22;8603;46.944;7.412;2024-03-25T06:29:52;10.40;99.90
16974;DHT22;8603;46.944;7.412;2024-03-25T06:32:38;10.80;99.90
16974;DHT22;8603;46.944;7.412;2024-03-25T06:35:22;10.70;99.90
16974;DHT22;8603;46.944;7.412;2024-03-25T06:37:48;10.30;99.90
16974;DHT22;8603;46.944;7.412;2024-03-25T06:40:14;9.80;99.90
16974;DHT22;8603;46.944;7.412;2024-03-25T06:42:39;9.50;99.90
16974;DHT22;8603;46.944;7.412;2024-03-25T06:45:05;9.30;99.90
16974;DHT22;8603;46.944;7.412;2024-03-25T06:47:31;9.40;99.90
16974;DHT22;8603;46.944;7.412;2024-03-25T06:49:56;9.70;99.90
16974;DHT22;8603;46.944;7.412;2024-03-25T06:52:22;10.40;99.90
16974;DHT22;8603;46.944;7.412;2024-03-25T06:54:48;11.10;99.90
16974;DHT22;8603;46.944;7.412;2024-03-25T06:57:14;12.60;99.90
16974;DHT22;8603;46.944;7.412;2024-03-25T06:59:39;13.90;99.90
16974;DHT22;8603;46.944;7.412;2024-03-25T07:02:07;15.00;99.90
16974;DHT22;8603;46.944;7.412;2024-03-25T07:04:33;15.90;98.40
16974;DHT22;8603;46.944;7.412;2024-03-25T07:07:05;16.20;95.70
16974;DHT22;8603;46.944;7.412;2024-03-25T07:09:35;16.50;94.90
16974;DHT22;8603;46.944;7.412;2024-03-25T07:12:03;17.50;93.70
16974;DHT22;8603;46.944;7.412;2024-03-25T07:14:32;17.90;92.80
16974;DHT22;8603;46.944;7.412;2024-03-25T07:16:57;18.30;90.90
16974;DHT22;8603;46.944;7.412;2024-03-25T07:19:23;18.80;90.30
16974;DHT22;8603;46.944;7.412;2024-03-25T07:21:49;18.80;88.80
16974;DHT22;8603;46.944;7.412;2024-03-25T07:24:14;19.20;87.00
16974;DHT22;8603;46.944;7.412;2024-03-25T07:26:40;19.10;87.10
16974;DHT22;8603;46.944;7.412;2024-03-25T07:29:06;19.80;85.30
16974;DHT22;8603;46.944;7.412;2024-03-25T07:31:31;19.50;81.20
16974;DHT22;8603;46.944;7.412;2024-03-25T07:33:57;19.80;80.80
16974;DHT22;8603;46.944;7.412;2024-03-25T07:36:23;20.20;82.10
16974;DHT22;8603;46.944;7.412;2024-03-25T07:38:48;21.20;79.20
16974;DHT22;8603;46.944;7.412;2024-03-25T07:41:14;21.70;77.70
16974;DHT22;8603;46.944;7.412;2024-03-25T07:43:40;22.40;75.90
16974;DHT22;8603;46.944;7.412;2024-03-25T07:46:05;22.20;74.20
16974;DHT22;8603;46.944;7.412;2024-03-25T07:48:31;22.50;72.60
16974;DHT22;8603;46.944;7.412;2024-03-25T07:50:57;22.70;72.60
16974;DHT22;8603;46.944;7.412;2024-03-25T07:53:22;22.50;71.80
16974;DHT22;8603;46.944;7.412;2024-03-25T07:55:48;20.90;70.20
16974;DHT22;8603;46.944;7.412;2024-03-25T07:58:13;20.00;72.80
16974;DHT22;8603;46.944;7.412;2024-03-25T08:00:39;19.60;72.00
16974;DHT22;8603;46.944;7.412;2024-03-25T08:03:04;19.00;73.80
16974;DHT22;8603;46.944;7.412;2024-03-25T08:05:30;19.70;74.40
16974;DHT22;8603;46.944;7.412;2024-03-25T08:07:56;20.40;72.20
16974;DHT22;8603;46.944;7.412;2024-03-25T08:10:22;21.20;72.60
16974;DHT22;8603;46.944;7.412;2024-03-25T08:12:48;22.40;71.50
16974;DHT22;8603;46.944;7.412;2024-03-25T08:15:14;22.70;69.60
16974;DHT22;8603;46.944;7.412;2024-03-25T08:17:39;21.70;67.80
16974;DHT22;8603;46.944;7.412;2024-03-25T08:20:06;21.40;70.20
16974;DHT22;8603;46.944;7.412;2024-03-25T08:22:31;22.30;69.90
16974;DHT22;8603;46.944;7.412;2024-03-25T08:24:57;23.40;67.00
16974;DHT22;8603;46.944;7.412;2024-03-25T08:27:23;24.30;67.60
16974;DHT22;8603;46.944;7.412;2024-03-25T08:29:48;23.50;65.00
16974;DHT22;8603;46.944;7.412;2024-03-25T08:32:19;23.30;65.90
16974;DHT22;8603;46.944;7.412;2024-03-25T08:34:45;23.50;65.50
16974;DHT22;8603;46.944;7.412;2024-03-25T08:37:11;24.50;65.40
16974;DHT22;8603;46.944;7.412;2024-03-25T08:39:36;24.50;65.70
16974;DHT22;8603;46.944;7.412;2024-03-25T08:42:02;25.00;65.10
16974;DHT22;8603;46.944;7.412;2024-03-25T08:44:56;26.00;65.20
16974;DHT22;8603;46.944;7.412;2024-03-25T08:47:22;26.50;62.90
16974;DHT22;8603;46.944;7.412;2024-03-25T08:49:48;27.10;61.40
16974;DHT22;8603;46.944;7.412;2024-03-25T08:52:13;27.50;61.60
16974;DHT22;8603;46.944;7.412;2024-03-25T08:54:39;27.60;60.20
16974;DHT22;8603;46.944;7.412;2024-03-25T08:57:05;27.70;60.60
16974;DHT22;8603;46.944;7.412;2024-03-25T08:59:30;27.70;59.30
16974;DHT22;8603;46.944;7.412;2024-03-25T09:01:58;28.00;59.60
16974;DHT22;8603;46.944;7.412;2024-03-25T09:04:24;26.50;58.70
16974;DHT22;8603;46.944;7.412;2024-03-25T09:07:00;26.10;60.70
16974;DHT22;8603;46.944;7.412;2024-03-25T09:09:35;26.50;59.90
16974;DHT22;8603;46.944;7.412;2024-03-25T09:12:21;27.40;59.80
16974;DHT22;8603;46.944;7.412;2024-03-25T09:14:47;28.20;58.50
16974;DHT22;8603;46.944;7.412;2024-03-25T09:17:15;27.20;60.00
16974;DHT22;8603;46.944;7.412;2024-03-25T09:19:43;27.50;58.80
16974;DHT22;8603;46.944;7.412;2024-03-25T09:22:12;27.80;59.80
16974;DHT22;8603;46.944;7.412;2024-03-25T09:24:45;27.90;57.40
16974;DHT22;8603;46.944;7.412;2024-03-25T09:27:11;26.10;58.00
16974;DHT22;8603;46.944;7.412;2024-03-25T09:29:43;25.50;59.40
16974;DHT22;8603;46.944;7.412;2024-03-25T09:32:09;25.30;59.10
16974;DHT22;8603;46.944;7.412;2024-03-25T09:34:34;24.40;60.00
16974;DHT22;8603;46.944;7.412;2024-03-25T09:37:06;22.90;61.60
16974;DHT22;8603;46.944;7.412;2024-03-25T09:39:35;21.30;63.80
16974;DHT22;8603;46.944;7.412;2024-03-25T09:42:27;20.10;65.80
16974;DHT22;8603;46.944;7.412;2024-03-25T09:44:57;18.80;68.10
16974;DHT22;8603;46.944;7.412;2024-03-25T09:47:23;17.70;69.20
16974;DHT22;8603;46.944;7.412;2024-03-25T09:49:49;16.90;71.50
16974;DHT22;8603;46.944;7.412;2024-03-25T09:52:15;16.10;72.80
16974;DHT22;8603;46.944;7.412;2024-03-25T09:54:59;14.90;73.50
16974;DHT22;8603;46.944;7.412;2024-03-25T09:57:31;13.90;75.50
16974;DHT22;8603;46.944;7.412;2024-03-25T10:00:04;13.20;76.90
16974;DHT22;8603;46.944;7.412;2024-03-25T10:02:38;12.70;79.10
16974;DHT22;8603;46.944;7.412;2024-03-25T10:05:13;12.30;78.90
16974;DHT22;8603;46.944;7.412;2024-03-25T10:07:39;12.10;79.20
16974;DHT22;8603;46.944;7.412;2024-03-25T10:10:08;12.00;80.90
16974;DHT22;8603;46.944;7.412;2024-03-25T10:12:36;11.70;80.00
16974;DHT22;8603;46.944;7.412;2024-03-25T10:15:08;11.50;80.10
16974;DHT22;8603;46.944;7.412;2024-03-25T10:17:34;11.40;79.00
16974;DHT22;8603;46.944;7.412;2024-03-25T10:20:03;11.30;81.90
16974;DHT22;8603;46.944;7.412;2024-03-25T10:22:43;11.10;81.00
16974;DHT22;8603;46.944;7.412;2024-03-25T10:25:29;11.10;82.50
16974;DHT22;8603;46.944;7.412;2024-03-25T10:27:57;11.20;83.40
16974;DHT22;8603;46.944;7.412;2024-03-25T10:30:34;11.20;82.50
16974;DHT22;8603;46.944;7.412;2024-03-25T10:33:14;11.30;84.40
16974;DHT22;8603;46.944;7.412;2024-03-25T10:38:56;11.70;85.00
16974;DHT22;8603;46.944;7.412;2024-03-25T10:41:23;11.90;83.30
16974;DHT22;8603;46.944;7.412;2024-03-25T10:43:52;11.70;81.90
16974;DHT22;8603;46.944;7.412;2024-03-25T10:46:20;11.50;81.10
16974;DHT22;8603;46.944;7.412;2024-03-25T10:49:06;11.40;82.80
16974;DHT22;8603;46.944;7.412;2024-03-25T10:51:36;11.40;81.70
16974;DHT22;8603;46.944;7.412;2024-03-25T10:54:03;11.30;81.80
16974;DHT22;8603;46.944;7.412;2024-03-25T10:56:30;11.30;83.60
16974;DHT22;8603;46.944;7.412;2024-03-25T10:59:23;11.40;85.40
16974;DHT22;8603;46.944;7.412;2024-03-25T11:04:54;11.70;86.60
16974;DHT22;8603;46.944;7.412;2024-03-25T11:07:33;11.90;87.00
16974;DHT22;8603;46.944;7.412;2024-03-25T11:10:16;12.00;85.20
16974;DHT22;8603;46.944;7.412;2024-03-25T11:13:18;12.10;85.60
16974;DHT22;8603;46.944;7.412;2024-03-25T11:16:04;12.10;82.60
16974;DHT22;8603;46.944;7.412;2024-03-25T11:18:35;12.00;81.60
16974;DHT22;8603;46.944;7.412;2024-03-25T11:21:07;11.80;81.80
16974;DHT22;8603;46.944;7.412;2024-03-25T11:23:46;11.80;82.90
16974;DHT22;8603;46.944;7.412;2024-03-25T11:26:24;11.50;82.50
16974;DHT22;8603;46.944;7.412;2024-03-25T11:28:59;11.40;81.30
16974;DHT22;8603;46.944;7.412;2024-03-25T11:31:49;11.40;80.00
16974;DHT22;8603;46.944;7.412;2024-03-25T11:34:15;11.60;79.60
16974;DHT22;8603;46.944;7.412;2024-03-25T11:36:43;11.60;81.20
16974;DHT22;8603;46.944;7.412;2024-03-25T11:39:09;11.70;81.70
16974;DHT22;8603;46.944;7.412;2024-03-25T11:41:54;11.80;81.60
16974;DHT22;8603;46.944;7.412;2024-03-25T11:44:23;11.90;80.50
16974;DHT22;8603;46.944;7.412;2024-03-25T11:46:50;11.80;79.30
16974;DHT22;8603;46.944;7.412;2024-03-25T11:49:16;11.60;79.60
16974;DHT22;8603;46.944;7.412;2024-03-25T11:51:47;11.70;83.20
16974;DHT22;8603;46.944;7.412;2024-03-25T11:54:13;11.80;82.40
16974;DHT22;8603;46.944;7.412;2024-03-25T11:56:42;11.90;82.60
16974;DHT22;8603;46.944;7.412;2024-03-25T11:59:10;11.90;80.20
16974;DHT22;8603;46.944;7.412;2024-03-25T12:01:38;11.90;80.20
16974;DHT22;8603;46.944;7.412;2024-03-25T12:04:20;11.90;82.30
16974;DHT22;8603;46.944;7.412;2024-03-25T12:06:49;12.00;83.10
16974;DHT22;8603;46.944;7.412;2024-03-25T12:09:15;12.00;79.50
16974;DHT22;8603;46.944;7.412;2024-03-25T12:12:02;12.10;79.60
16974;DHT22;8603;46.944;7.412;2024-03-25T12:14:28;12.10;76.80
16974;DHT22;8603;46.944;7.412;2024-03-25T12:16:55;12.00;75.90
16974;DHT22;8603;46.944;7.412;2024-03-25T12:19:30;12.00;76.50
16974;DHT22;8603;46.944;7.412;2024-03-25T12:22:04;12.00;78.60
16974;DHT22;8603;46.944;7.412;2024-03-25T12:24:33;12.30;79.50
16974;DHT22;8603;46.944;7.412;2024-03-25T12:27:00;12.40;78.70
16974;DHT22;8603;46.944;7.412;2024-03-25T12:29:31;12.50;78.60
16974;DHT22;8603;46.944;7.412;2024-03-25T12:31:57;12.50;77.00
16974;DHT22;8603;46.944;7.412;2024-03-25T12:34:28;12.70;76.60
16974;DHT22;8603;46.944;7.412;2024-03-25T12:37:01;12.90;75.50
16974;DHT22;8603;46.944;7.412;2024-03-25T12:39:28;13.10;75.80
16974;DHT22;8603;46.944;7.412;2024-03-25T12:41:55;13.10;75.20
16974;DHT22;8603;46.944;7.412;2024-03-25T12:44:21;13.20;74.60
16974;DHT22;8603;46.944;7.412;2024-03-25T12:46:47;13.20;74.90
16974;DHT22;8603;46.944;7.412;2024-03-25T12:49:16;13.40;76.20
16974;DHT22;8603;46.944;7.412;2024-03-25T12:51:41;13.50;77.20
16974;DHT22;8603;46.944;7.412;2024-03-25T12:54:07;13.40;79.20
16974;DHT22;8603;46.944;7.412;2024-03-25T12:56:35;13.50;80.40
16974;DHT22;8603;46.944;7.412;2024-03-25T12:59:04;13.40;79.10
16974;DHT22;8603;46.944;7.412;2024-03-25T13:01:30;13.40;79.20
16974;DHT22;8603;46.944;7.412;2024-03-25T13:03:55;13.20;78.60
16974;DHT22;8603;46.944;7.412;2024-03-25T13:06:24;13.10;81.00
16974;DHT22;8603;46.944;7.412;2024-03-25T13:09:10;13.00;80.20
16974;DHT22;8603;46.944;7.412;2024-03-25T13:11:36;13.00;79.90
16974;DHT22;8603;46.944;7.412;2024-03-25T13:14:03;13.00;80.40
16974;DHT22;8603;46.944;7.412;2024-03-25T13:16:32;12.90;75.20
16974;DHT22;8603;46.944;7.412;2024-03-25T13:18:58;12.80;77.70
16974;DHT22;8603;46.944;7.412;2024-03-25T13:21:24;12.90;77.90
16974;DHT22;8603;46.944;7.412;2024-03-25T13:23:54;13.00;78.70
16974;DHT22;8603;46.944;7.412;2024-03-25T13:26:19;13.00;78.50
16974;DHT22;8603;46.944;7.412;2024-03-25T13:28:47;13.00;79.90
16974;DHT22;8603;46.944;7.412;2024-03-25T13:31:16;13.10;80.10
16974;DHT22;8603;46.944;7.412;2024-03-25T13:33:59;13.10;80.30
16974;DHT22;8603;46.944;7.412;2024-03-25T13:36:48;13.10;79.90
16974;DHT22;8603;46.944;7.412;2024-03-25T13:39:14;13.30;77.90
16974;DHT22;8603;46.944;7.412;2024-03-25T13:41:40;13.40;79.40
16974;DHT22;8603;46.944;7.412;2024-03-25T13:44:06;13.30;79.10
16974;DHT22;8603;46.944;7.412;2024-03-25T13:46:31;13.30;78.70
16974;DHT22;8603;46.944;7.412;2024-03-25T13:49:02;13.30;79.80
16974;DHT22;8603;46.944;7.412;2024-03-25T13:51:28;13.30;82.20
16974;DHT22;8603;46.944;7.412;2024-03-25T13:53:59;13.30;82.10
16974;DHT22;8603;46.944;7.412;2024-03-25T13:56:25;13.30;78.90
16974;DHT22;8603;46.944;7.412;2024-03-25T13:58:53;13.30;79.00
16974;DHT22;8603;46.944;7.412;2024-03-25T14:01:41;13.30;80.30
16974;DHT22;8603;46.944;7.412;2024-03-25T14:04:10;13.20;79.50
16974;DHT22;8603;46.944;7.412;2024-03-25T14:06:36;13.10;81.40
16974;DHT22;8603;46.944;7.412;2024-03-25T14:09:03;13.10;82.20
16974;DHT22;8603;46.944;7.412;2024-03-25T14:11:34;12.90;81.90
16974;DHT22;8603;46.944;7.412;2024-03-25T14:14:00;12.80;82.80
16974;DHT22;8603;46.944;7.412;2024-03-25T14:16:35;12.70;83.00
16974;DHT22;8603;46.944;7.412;2024-03-25T14:19:04;12.80;83.50
16974;DHT22;8603;46.944;7.412;2024-03-25T14:21:29;12.80;84.60
16974;DHT22;8603;46.944;7.412;2024-03-25T14:23:55;12.70;83.90
16974;DHT22;8603;46.944;7.412;2024-03-25T14:26:21;12.60;85.20
16974;DHT22;8603;46.944;7.412;2024-03-25T14:28:54;12.60;86.00
16974;DHT22;8603;46.944;7.412;2024-03-25T14:31:22;12.50;85.60
16974;DHT22;8603;46.944;7.412;2024-03-25T14:33:47;12.50;85.80
16974;DHT22;8603;46.944;7.412;2024-03-25T14:36:16;12.40;86.00
16974;DHT22;8603;46.944;7.412;2024-03-25T14:38:41;12.50;87.00
16974;DHT22;8603;46.944;7.412;2024-03-25T14:41:08;12.50;87.00
16974;DHT22;8603;46.944;7.412;2024-03-25T14:43:36;12.50;86.80
16974;DHT22;8603;46.944;7.412;2024-03-25T14:46:09;12.50;86.70
16974;DHT22;8603;46.944;7.412;2024-03-25T14:48:35;12.60;87.30
16974;DHT22;8603;46.944;7.412;2024-03-25T14:51:01;12.50;87.30
16974;DHT22;8603;46.944;7.412;2024-03-25T14:53:29;12.50;87.20
16974;DHT22;8603;46.944;7.412;2024-03-25T14:55:55;12.70;88.30
16974;DHT22;8603;46.944;7.412;2024-03-25T14:58:23;12.40;88.20
16974;DHT22;8603;46.944;7.412;2024-03-25T15:00:48;12.50;88.10
16974;DHT22;8603;46.944;7.412;2024-03-25T15:03:34;12.50;87.50
16974;DHT22;8603;46.944;7.412;2024-03-25T15:06:07;12.60;87.50
16974;DHT22;8603;46.944;7.412;2024-03-25T15:08:33;12.40;87.70
16974;DHT22;8603;46.944;7.412;2024-03-25T15:10:59;12.40;88.00
16974;DHT22;8603;46.944;7.412;2024-03-25T15:13:25;12.30;87.60
16974;DHT22;8603;46.944;7.412;2024-03-25T15:16:11;12.50;88.20
16974;DHT22;8603;46.944;7.412;2024-03-25T15:18:50;12.50;88.00
16974;DHT22;8603;46.944;7.412;2024-03-25T15:21:19;12.60;89.00
16974;DHT22;8603;46.944;7.412;2024-03-25T15:23:47;12.60;87.90
16974;DHT22;8603;46.944;7.412;2024-03-25T15:26:18;12.60;87.70
16974;DHT22;8603;46.944;7.412;2024-03-25T15:28:58;12.60;87.90
16974;DHT22;8603;46.944;7.412;2024-03-25T15:31:24;12.70;87.70
16974;DHT22;8603;46.944;7.412;2024-03-25T15:33:50;12.70;88.10
16974;DHT22;8603;46.944;7.412;2024-03-25T15:36:16;12.70;89.30
16974;DHT22;8603;46.944;7.412;2024-03-25T15:38:41;12.90;90.00
16974;DHT22;8603;46.944;7.412;2024-03-25T15:41:07;12.80;89.00
16974;DHT22;8603;46.944;7.412;2024-03-25T15:43:32;12.80;88.60
16974;DHT22;8603;46.944;7.412;2024-03-25T15:45:59;12.80;87.50
16974;DHT22;8603;46.944;7.412;2024-03-25T15:48:25;12.80;88.20
16974;DHT22;8603;46.944;7.412;2024-03-25T15:50:51;12.70;86.60
16974;DHT22;8603;46.944;7.412;2024-03-25T15:53:16;12.60;87.90
16974;DHT22;8603;46.944;7.412;2024-03-25T15:55:42;12.60;88.70
16974;DHT22;8603;46.944;7.412;2024-03-25T15:58:11;12.60;88.90
16974;DHT22;8603;46.944;7.412;2024-03-25T16:00:37;12.60;88.70
16974;DHT22;8603;46.944;7.412;2024-03-25T16:03:04;12.50;88.70
16974;DHT22;8603;46.944;7.412;2024-03-25T16:05:29;12.50;89.40
16974;DHT22;8603;46.944;7.412;2024-03-25T16:07:55;12.30;88.60
16974;DHT22;8603;46.944;7.412;2024-03-25T16:10:33;12.30;89.40
16974;DHT22;8603;46.944;7.412;2024-03-25T16:13:00;12.30;89.90
16974;DHT22;8603;46.944;7.412;2024-03-25T16:15:28;12.20;89.60
16974;DHT22;8603;46.944;7.412;2024-03-25T16:17:54;12.30;90.40
16974;DHT22;8603;46.944;7.412;2024-03-25T16:20:20;12.20;90.60
16974;DHT22;8603;46.944;7.412;2024-03-25T16:22:49;12.10;90.20
16974;DHT22;8603;46.944;7.412;2024-03-25T16:25:16;12.00;90.20
16974;DHT22;8603;46.944;7.412;2024-03-25T16:27:41;12.00;90.00
16974;DHT22;8603;46.944;7.412;2024-03-25T16:30:07;12.00;89.80
16974;DHT22;8603;46.944;7.412;2024-03-25T16:32:36;11.90;90.20
16974;DHT22;8603;46.944;7.412;2024-03-25T16:35:03;11.90;90.40
16974;DHT22;8603;46.944;7.412;2024-03-25T16:37:32;11.80;90.30
16974;DHT22;8603;46.944;7.412;2024-03-25T16:39:57;11.90;90.60
16974;DHT22;8603;46.944;7.412;2024-03-25T16:42:24;11.70;90.20